Terminal Aerodrome Forecast
Issued by NWS

Home | Current Version | Previous Version | Graphics & Text | Print | Product List | Glossary On
Versions: 1 2 3 4 5 6 7 8 9 10 11 12 13 14 15 16 17 18 19 20 21
741
FTUS43 KGRB 161717 AAB
TAFCWA
TAF AMD
KCWA 161717Z 1617/1712 34005KT P6SM OVC024
     FM162200 01005KT P6SM SCT020 SCT200
     FM170100 13006KT P6SM SCT070 BKN100
     FM170800 13009KT P6SM SCT015 OVC025=

USA.gov is the U.S. government's official web portal to all federal, state and local government web resources and services.